Hlavní strana
METAR-TAF:

METAR-TAF

Letiště :

Ben Gurionovo mezinárodní letiště

Tel Aviv / Ben Gurion, Izrael

zeměpisná šířka: 32-00N, zeměpisná délka: 034-54E, výška: 40 m

Aktuální stav počasí

Zpráva byla vytvořena před 16 minutami, v 04:50 UTC
vítr z různých směrů 2 kt
Teplota 5°C
Vlhkost vzduchu 65%
Tlak 1018 hPa
Viditelnost 10 km a více
Žádná oblačnost pod 1500 m, nevyskytují se cumulonimby.

METAR: LLBG 240450Z VRB02KT CAVOK 05/M01 Q1018 NOSIG

Čas: 07:06 (05:06 UTC)

Předpověď počasí

Zpráva byla vytvořena před 6 hodinami a 0 minutami, v 23:06 UTC
Předpověď platná od 24 v 00 UTC do 24 v 24 UTC
vítr z různých směrů 3 kt
Viditelnost 10 km a více
Žádná oblačnost pod 1500 m, nevyskytují se cumulonimby.
Změna
od 24 v 07 UTC do 24 v 09 UTC
Západojihozápadní vítr 6 kt
Změna
od 24 v 15 UTC do 24 v 17 UTC
vítr z různých směrů 3 kt
Viditelnost 10 km a více
Skoro jasno ve výšce 2000 ft

TAF: LLBG 232306Z 2400/2424 VRB03KT CAVOK BECMG 2407/2409 25006KT BECMG 2415/2417 VRB03KT 9999 FEW020 TX19/2412Z TN06/2405Z

Stav a předpovědi počasí z více než 4 000 letišť (zprávy METAR a TAF).

Červené a žluté tečky na mapě představují dostupné meteorologické stanice.

Když kurzor umístíte na tečku, zobrazí se název stanice.

Pak kliknutím zobrazíte stav a předpověď počasí.

Chcete-li změnit mapu, kliknutím na zelené tlačítko se znaménkem +mapu přiblížíte, kliknutím na zelené tlačítko se znaménkem – mapu oddálíte a kliknutím na zelené šipky přejdete na sousední mapy.


METAR-TAF: